Dayton, OH (45402)

9:24 AM EST on February 10, 2016 (GMT -0500)
Oregon Historic District | | Change Station
CLOSE
Current Station
Personal Weather Station
Location: Dayton, OH
Elevation: 745 ft
Nearby Weather Stations
Active Advisory: Winter Weather Advisory Active Notice: Local Storm Report

Elev 745 ft 39.75 °N, 84.18 °W | Updated 28 seconds ago

Snow
Snow
16.9 °F
Feels Like 17 °F
N
0.0
Wind Variable Wind from WNW
Gusts 0.0 mph

Today
High -- | Low -- °F
--% Chance of Precip.
Yesterday
High -- | Low -- °F
Precip. -- in
Pressure 29.98 in
Visibility 2.0 miles
Clouds Overcast 1600 ft
Windchill 17 °F
Dew Point 3 °F
Humidity 54%
Rainfall 0.00 in
Snow Depth Not available.
7:35 AM 6:06 PM
Waxing Crescent, 5% visible
METAR KFFO 101358Z 25009G16KT 2SM -SN OVC016 M09/M12 A2993 RMK AO2A VIS 1/1/2V2 1/2 SLP151 P0000 T10931120
Pressure 29.98 in
Visibility 2.0 miles
Clouds Overcast 1600 ft
Windchill 17 °F
Dew Point 3 °F
Humidity 54%
Rainfall 0.00 in
Snow Depth Not available.
7:35 AM 6:06 PM
Waxing Crescent, 5% visible
METAR KFFO 101358Z 25009G16KT 2SM -SN OVC016 M09/M12 A2993 RMK AO2A VIS 1/1/2V2 1/2 SLP151 P0000 T10931120

10-Day Weather Forecast

Almanac

Astronomy

Feb. 10, 2016 Rise Set
Actual Time
Civil Twilight
Nautical Twilight
Astronomical Twilight
Moon
Length of Visible Light
Length of Day
Tomorrow will be .
, % of the Moon is Illuminated

Today's Extremes

State Highs State Lows

Community

WunderPhotos

Upload Photos

1,891,850 photos uploaded!

WunderBlog® & News

Nearby

Air Quality

  Air Quality AQ Index Pollutant
Not available.

Snow Depth

Station Depth Elevation

Earthquake Activity

City Distance Mag. Time & Date
Minimum magnitude displayed is 2.5.

Coastal Water Temperatures

Place Temperature

Stations

Nearby Weather Stations

Station Location Temp. Windchill Dew Point Humidity Wind Precip. Elev Updated Type
                   

Watches & Warnings

Winter Weather Advisory
Issued: 3:51 AM EST Feb. 10, 2016 – National Weather Service

... Winter Weather Advisory remains in effect until 10 am EST this
morning...

* timing... scattered snow showers through this morning.

* Accumulations... snow accumulations of up to 1 inch.

* Impacts... travel difficulties are expected due to reduced
visibilities and snow accumulations.

Precautionary/preparedness actions...

Remember... a Winter Weather Advisory for snow means that periods
of snow will cause primarily travel difficulties. Be prepared for
snow covered roads and limited visibilities... and use caution
while driving. Stay tuned to NOAA Weather Radio or your favorite
source of information for the latest updates. Additional details
can also be found at www.Weather.Gov/iln as well as on our
facebook and twitter pages.